Time;durP1;ratioP1;P1;durP2;ratioP2;P2;SDS_P1;SDS_P2;PMS_P1;PMS_P2;Temp;Humidity;BMP_temperature;BMP_pressure;BME280_temperature;BME280_humidity;BME280_pressure;Samples;Min_cycle;Max_cycle;Signal;HPM_P1;HPM_P2
2023/05/06 00:00:07;;;;;;;18.57;17.07;;;;;;;13.90;100.00;100488.56;5034996;28;20255;-80
2023/05/06 00:02:34;;;;;;;18.00;16.80;;;;;;;13.70;100.00;100467.38;5035639;28;20260;-81
2023/05/06 00:05:02;;;;;;;20.23;18.73;;;;;;;13.29;100.00;100430.13;5035285;28;20270;-80
2023/05/06 00:07:28;;;;;;;17.93;16.63;;;;;;;13.40;100.00;100377.38;5034801;28;20281;-81
2023/05/06 00:09:54;;;;;;;20.13;18.50;;;;;;;13.55;100.00;100365.56;5034777;28;20630;-81
2023/05/06 00:12:21;;;;;;;19.33;18.03;;;;;;;13.56;100.00;100373.38;5034645;28;20254;-81
2023/05/06 00:14:47;;;;;;;21.10;19.60;;;;;;;13.68;100.00;100377.38;5035288;28;20237;-80
2023/05/06 00:17:13;;;;;;;19.93;18.50;;;;;;;13.53;100.00;100383.13;5035253;28;20254;-80
2023/05/06 00:19:43;;;;;;;20.63;19.03;;;;;;;13.31;100.00;100371.53;5034379;28;20273;-81
2023/05/06 00:22:10;;;;;;;20.70;19.20;;;;;;;13.36;100.00;100353.06;5034911;28;20649;-79
2023/05/06 00:24:36;;;;;;;20.50;18.90;;;;;;;13.21;100.00;100345.63;5034536;28;20213;-80
2023/05/06 00:27:03;;;;;;;21.97;20.27;;;;;;;12.98;100.00;100315.75;5035119;28;20264;-80
2023/05/06 00:29:29;;;;;;;19.43;18.07;;;;;;;13.04;100.00;100309.44;5035259;28;20643;-79
2023/05/06 00:31:55;;;;;;;20.00;18.40;;;;;;;13.07;100.00;100301.50;5035023;28;20635;-78
2023/05/06 00:34:22;;;;;;;19.93;18.33;;;;;;;13.01;100.00;100301.72;5035430;28;20214;-79
2023/05/06 00:36:49;;;;;;;18.87;17.47;;;;;;;13.06;100.00;100308.53;5034412;28;20230;-81
2023/05/06 00:39:16;;;;;;;17.73;16.40;;;;;;;13.11;100.00;100308.38;5033580;28;20214;-79
2023/05/06 00:41:42;;;;;;;15.60;14.50;;;;;;;12.74;100.00;100316.50;5035003;28;20279;-80
2023/05/06 00:44:08;;;;;;;16.70;15.50;;;;;;;12.70;100.00;100302.63;5034945;28;20211;-79
2023/05/06 00:46:35;;;;;;;18.13;16.63;;;;;;;12.63;100.00;100301.97;5034654;28;20234;-80
2023/05/06 00:49:02;;;;;;;19.00;17.60;;;;;;;12.51;100.00;100294.47;5035214;28;20206;-78
2023/05/06 00:51:30;;;;;;;19.17;17.60;;;;;;;12.54;100.00;100302.22;5034241;28;20223;-79
2023/05/06 00:53:58;;;;;;;18.63;17.23;;;;;;;12.46;100.00;100306.81;5035549;28;20210;-79
2023/05/06 00:56:24;;;;;;;18.53;17.13;;;;;;;12.61;100.00;100314.25;5034226;28;20654;-81
2023/05/06 00:58:51;;;;;;;17.13;15.93;;;;;;;12.70;100.00;100318.34;5034516;28;20213;-81
2023/05/06 01:01:18;;;;;;;17.37;15.80;;;;;;;12.87;100.00;100328.31;5034476;28;20206;-82
2023/05/06 01:03:44;;;;;;;16.47;15.27;;;;;;;13.02;100.00;100333.09;5034988;28;20211;-80
2023/05/06 01:06:18;;;;;;;15.83;14.67;;;;;;;12.99;100.00;100351.53;5033765;28;20786;-80
2023/05/06 01:08:53;;;;;;;16.37;15.27;;;;;;;12.68;100.00;100362.06;5035084;28;20676;-78
2023/05/06 01:11:27;;;;;;;17.10;15.80;;;;;;;12.59;100.00;100347.47;5034305;28;20281;-79
2023/05/06 01:14:00;;;;;;;18.07;16.73;;;;;;;12.44;100.00;100342.66;5034691;28;20279;-81
2023/05/06 01:16:29;;;;;;;19.33;17.63;;;;;;;12.30;100.00;100335.19;5034340;28;20221;-79
2023/05/06 01:18:59;;;;;;;20.20;18.40;;;;;;;12.23;100.00;100329.28;5034574;28;20230;-79
2023/05/06 01:21:33;;;;;;;19.70;18.10;;;;;;;12.28;100.00;100323.91;5034457;28;20685;-80
2023/05/06 01:24:01;;;;;;;19.43;17.93;;;;;;;12.33;100.00;100340.38;5034590;28;20202;-82
2023/05/06 01:26:27;;;;;;;19.73;18.27;;;;;;;12.54;100.00;100338.88;5034115;28;20280;-80
2023/05/06 01:28:54;;;;;;;19.17;17.53;;;;;;;12.71;100.00;100349.72;5034502;28;20241;-79
2023/05/06 01:31:25;;;;;;;18.77;17.37;;;;;;;12.63;100.00;100359.56;5037427;28;20264;-81
2023/05/06 01:34:05;;;;;;;19.50;18.00;;;;;;;12.67;100.00;100365.59;5038105;28;20207;-81
2023/05/06 01:36:40;;;;;;;18.50;17.00;;;;;;;12.59;100.00;100375.44;5038052;28;20245;-81
2023/05/06 01:39:14;;;;;;;20.13;18.63;;;;;;;12.52;100.00;100372.94;5037884;28;20213;-80
2023/05/06 01:41:41;;;;;;;18.93;17.43;;;;;;;12.71;100.00;100373.31;5037545;28;20679;-82
2023/05/06 01:44:08;;;;;;;19.60;17.93;;;;;;;12.71;100.00;100381.16;5038555;28;20215;-81
2023/05/06 01:46:35;;;;;;;19.97;18.20;;;;;;;12.73;100.00;100383.75;5037679;28;20605;-82
2023/05/06 01:49:05;;;;;;;21.43;19.53;;;;;;;12.53;100.00;100386.94;5038113;28;20271;-81
2023/05/06 01:51:32;;;;;;;22.27;20.07;;;;;;;12.51;100.00;100373.88;5037466;28;20232;-80
2023/05/06 01:53:59;;;;;;;20.17;18.67;;;;;;;12.54;100.00;100372.91;5037379;28;20207;-80
2023/05/06 01:56:29;;;;;;;20.67;18.87;;;;;;;12.69;100.00;100382.13;5037713;28;20254;-80
2023/05/06 01:58:55;;;;;;;20.73;19.13;;;;;;;12.86;100.00;100386.84;5037449;28;20206;-81
2023/05/06 02:01:21;;;;;;;19.00;17.50;;;;;;;12.98;100.00;100396.97;5037727;28;20731;-81
2023/05/06 02:03:48;;;;;;;18.23;16.70;;;;;;;13.08;100.00;100400.16;5036767;28;20216;-81
2023/05/06 02:06:14;;;;;;;17.07;15.70;;;;;;;13.08;100.00;100411.53;5037435;28;20264;-81
2023/05/06 02:08:40;;;;;;;16.57;15.17;;;;;;;13.16;100.00;100418.28;5037114;28;20211;-81
2023/05/06 02:11:07;;;;;;;17.60;16.27;;;;;;;13.00;100.00;100436.22;5037426;28;20202;-81
2023/05/06 02:13:34;;;;;;;17.97;16.40;;;;;;;12.69;100.00;100434.50;5037629;28;20233;-81
2023/05/06 02:16:01;;;;;;;17.97;16.63;;;;;;;12.76;100.00;100425.53;5037733;28;20261;-80
2023/05/06 02:18:27;;;;;;;17.47;16.17;;;;;;;12.88;100.00;100426.97;5037691;28;20214;-81
2023/05/06 02:20:53;;;;;;;18.00;16.50;;;;;;;12.80;100.00;100445.50;5037552;28;20210;-81
2023/05/06 02:23:20;;;;;;;18.00;16.70;;;;;;;12.86;100.00;100453.22;5037292;28;20244;-81
2023/05/06 02:25:46;;;;;;;17.63;16.23;;;;;;;12.94;100.00;100460.00;5037453;28;20222;-81
2023/05/06 02:28:12;;;;;;;16.43;15.23;;;;;;;13.01;100.00;100462.41;5037414;28;20417;-81
2023/05/06 02:30:40;;;;;;;17.83;16.33;;;;;;;12.79;100.00;100466.53;5038006;28;20210;-79
2023/05/06 02:33:06;;;;;;;17.47;16.07;;;;;;;12.62;100.00;100461.75;5038786;28;20229;-81
2023/05/06 02:35:33;;;;;;;16.17;14.97;;;;;;;12.67;100.00;100465.09;5038837;28;20206;-82
2023/05/06 02:37:59;;;;;;;18.00;16.50;;;;;;;12.28;100.00;100455.63;5037122;28;20230;-79
2023/05/06 02:40:26;;;;;;;18.63;17.07;;;;;;;12.02;100.00;100443.22;5037397;28;20240;-80
2023/05/06 02:42:52;;;;;;;19.70;18.07;;;;;;;11.55;100.00;100415.56;5036889;28;20202;-81
2023/05/06 02:45:18;;;;;;;20.67;18.87;;;;;;;11.62;100.00;100391.84;5037776;28;20206;-82
2023/05/06 02:47:46;;;;;;;18.27;16.80;;;;;;;11.39;100.00;100386.31;5037690;28;20234;-81
2023/05/06 02:50:12;;;;;;;18.50;16.80;;;;;;;11.40;100.00;100385.41;5037584;28;20205;-80
2023/05/06 02:52:39;;;;;;;18.50;16.97;;;;;;;11.17;100.00;100389.41;5038139;28;20225;-81
2023/05/06 02:55:06;;;;;;;16.17;14.80;;;;;;;10.90;100.00;100390.84;5038588;28;20268;-82
2023/05/06 02:57:32;;;;;;;16.63;15.20;;;;;;;10.78;100.00;100376.28;5037722;28;20222;-81
2023/05/06 02:59:59;;;;;;;16.30;14.90;;;;;;;10.78;100.00;100376.28;5037101;28;20248;-82
2023/05/06 03:02:25;;;;;;;16.60;15.10;;;;;;;10.75;100.00;100372.91;5037120;28;20206;-82
2023/05/06 03:04:53;;;;;;;16.10;14.70;;;;;;;10.79;100.00;100379.78;5037190;28;20260;-81
2023/05/06 03:07:19;;;;;;;15.50;14.20;;;;;;;10.75;100.00;100383.34;5037190;28;20715;-82
2023/05/06 03:09:46;;;;;;;14.40;13.10;;;;;;;10.82;100.00;100379.72;5036840;28;20264;-81
2023/05/06 03:12:12;;;;;;;13.67;12.47;;;;;;;10.98;100.00;100382.84;5036894;28;20645;-81
2023/05/06 03:14:38;;;;;;;13.70;12.50;;;;;;;11.02;100.00;100395.84;5037061;28;20206;-77
2023/05/06 03:17:05;;;;;;;10.97;10.17;;;;;;;10.94;100.00;100408.16;5036626;28;20641;-79
2023/05/06 03:19:31;;;;;;;11.50;10.70;;;;;;;11.02;100.00;100416.72;5036681;28;20206;-80
2023/05/06 03:21:59;;;;;;;11.73;10.73;;;;;;;10.97;100.00;100426.41;5036455;28;20210;-81
2023/05/06 03:24:25;;;;;;;11.03;10.13;;;;;;;10.94;100.00;100429.06;5036888;28;20202;-80
2023/05/06 03:26:51;;;;;;;10.60;9.70;;;;;;;10.81;100.00;100430.22;5036099;28;20226;-80
2023/05/06 03:29:18;;;;;;;11.07;10.27;;;;;;;10.68;100.00;100422.66;5036349;28;20213;-82
2023/05/06 03:31:44;;;;;;;10.00;9.30;;;;;;;10.69;100.00;100413.91;5035776;28;20263;-82
2023/05/06 03:34:10;;;;;;;10.53;9.73;;;;;;;10.69;100.00;100413.06;5035830;28;20589;-82
2023/05/06 03:36:36;;;;;;;10.40;9.60;;;;;;;10.69;100.00;100415.66;5036525;28;20253;-82
2023/05/06 03:39:04;;;;;;;10.70;9.80;;;;;;;10.75;100.00;100412.06;5037044;28;20210;-81
2023/05/06 03:41:31;;;;;;;9.60;8.90;;;;;;;10.87;100.00;100428.34;5036058;28;20210;-82
2023/05/06 03:43:57;;;;;;;9.60;8.73;;;;;;;10.86;100.00;100430.97;5035982;28;20269;-79
2023/05/06 03:46:23;;;;;;;9.50;8.70;;;;;;;10.97;100.00;100442.06;5035554;28;20284;-79
2023/05/06 03:48:50;;;;;;;9.67;8.77;;;;;;;11.11;100.00;100442.63;5036417;28;20220;-80
2023/05/06 03:51:16;;;;;;;9.80;9.00;;;;;;;11.24;100.00;100453.69;5035335;28;20201;-81
2023/05/06 03:53:43;;;;;;;8.20;7.60;;;;;;;11.35;100.00;100455.22;5035928;28;20292;-82
2023/05/06 03:56:10;;;;;;;7.50;6.90;;;;;;;11.44;100.00;100468.94;5035688;28;20206;-82
2023/05/06 03:58:37;;;;;;;7.83;7.23;;;;;;;11.50;100.00;100475.78;5035721;28;20206;-81
2023/05/06 04:01:03;;;;;;;8.10;7.40;;;;;;;11.55;100.00;100492.22;5035303;28;20206;-82
2023/05/06 04:03:30;;;;;;;8.90;8.10;;;;;;;11.58;100.00;100499.16;5035077;28;20206;-81
2023/05/06 04:05:56;;;;;;;7.70;7.20;;;;;;;11.65;100.00;100514.66;5035694;28;20246;-80
2023/05/06 04:08:23;;;;;;;8.60;7.80;;;;;;;11.65;100.00;100530.34;5035142;28;20222;-81
2023/05/06 04:10:49;;;;;;;9.77;9.00;;;;;;;11.60;100.00;100539.19;5035329;28;20260;-81
2023/05/06 04:13:17;;;;;;;15.70;14.47;;;;;;;11.47;100.00;100533.34;5034935;28;20254;-81
2023/05/06 04:15:43;;;;;;;13.50;12.37;;;;;;;11.46;100.00;100500.28;5034800;28;20215;-81
2023/05/06 04:18:09;;;;;;;14.70;13.47;;;;;;;11.37;100.00;100497.84;5035326;28;20233;-82
2023/05/06 04:20:35;;;;;;;15.23;13.93;;;;;;;11.18;100.00;100479.97;5034974;28;20240;-82
2023/05/06 04:23:02;;;;;;;15.97;14.67;;;;;;;11.13;100.00;100453.91;5034989;28;20737;-82
2023/05/06 04:25:28;;;;;;;16.37;14.97;;;;;;;11.08;100.00;100453.16;5035261;28;20239;-79
2023/05/06 04:27:55;;;;;;;14.27;13.07;;;;;;;11.15;100.00;100447.81;5033277;28;20230;-79
2023/05/06 04:30:22;;;;;;;16.53;15.13;;;;;;;11.01;100.00;100450.72;5034577;28;20217;-81
2023/05/06 04:32:49;;;;;;;15.83;14.30;;;;;;;11.02;100.00;100441.97;5034843;28;20221;-79
2023/05/06 04:35:15;;;;;;;15.70;14.20;;;;;;;10.87;100.00;100444.00;5034486;28;20214;-80
2023/05/06 04:37:42;;;;;;;16.10;14.50;;;;;;;10.84;100.00;100435.38;5035271;28;20226;-80
2023/05/06 04:40:10;;;;;;;15.97;14.57;;;;;;;10.78;100.00;100436.34;5034837;28;20206;-82
2023/05/06 04:42:36;;;;;;;15.77;14.30;;;;;;;10.85;100.00;100442.31;5034416;28;20218;-81
2023/05/06 04:45:04;;;;;;;15.73;14.33;;;;;;;10.63;100.00;100439.28;5034929;28;20208;-79
2023/05/06 04:47:32;;;;;;;15.57;14.27;;;;;;;10.61;100.00;100436.69;5054166;23;20980;-84
2023/05/06 04:49:58;;;;;;;16.50;13.87;;;;;;;10.64;100.00;100434.00;5033364;28;20206;-83
2023/05/06 04:52:25;;;;;;;14.67;13.57;;;;;;;10.57;100.00;100434.19;5033377;28;20260;-83
2023/05/06 04:54:51;;;;;;;14.90;13.60;;;;;;;10.53;100.00;100426.38;5034056;28;20278;-83
2023/05/06 04:57:17;;;;;;;14.30;13.03;;;;;;;10.44;100.00;100415.25;5034254;28;20234;-85
2023/05/06 04:59:44;;;;;;;16.33;14.87;;;;;;;10.41;100.00;100416.19;5039797;28;20201;-85
2023/05/06 05:02:10;;;;;;;15.60;14.10;;;;;;;10.40;100.00;100416.22;5036508;28;20677;-85
2023/05/06 05:04:38;;;;;;;15.33;14.03;;;;;;;10.46;100.00;100414.34;5035280;28;20237;-83
2023/05/06 05:07:04;;;;;;;14.33;13.03;;;;;;;10.50;100.00;100422.97;5037760;28;20229;-83
2023/05/06 05:09:30;;;;;;;14.47;13.27;;;;;;;10.46;100.00;100416.94;5038471;28;20214;-83
2023/05/06 05:11:57;;;;;;;14.03;12.83;;;;;;;10.54;100.00;100419.41;5038234;28;20206;-83
2023/05/06 05:14:23;;;;;;;15.53;14.20;;;;;;;10.56;100.00;100428.06;5038355;28;20202;-83
2023/05/06 05:16:50;;;;;;;15.53;14.20;;;;;;;10.59;100.00;100421.97;5038923;28;20214;-83
2023/05/06 05:19:16;;;;;;;14.93;13.63;;;;;;;10.62;100.00;100420.13;5039173;28;20209;-84
2023/05/06 05:21:43;;;;;;;15.53;14.03;;;;;;;10.72;100.00;100415.59;5039692;28;20259;-82
2023/05/06 05:24:10;;;;;;;15.80;14.30;;;;;;;10.75;100.00;100415.53;5037940;28;20206;-82
2023/05/06 05:26:36;;;;;;;15.07;13.77;;;;;;;10.65;100.00;100433.13;5037735;28;20252;-82
2023/05/06 05:29:03;;;;;;;15.20;13.83;;;;;;;10.62;100.00;100437.53;5037802;28;20624;-82
2023/05/06 05:31:30;;;;;;;14.87;13.53;;;;;;;10.79;100.00;100434.63;5045584;28;20207;-83
2023/05/06 05:33:56;;;;;;;14.53;13.23;;;;;;;10.87;100.00;100448.38;5037812;28;20252;-84
2023/05/06 05:36:22;;;;;;;13.90;12.67;;;;;;;11.08;100.00;100458.38;5037990;28;20210;-85
2023/05/06 05:38:50;;;;;;;14.93;13.57;;;;;;;10.93;100.00;100471.75;5039053;28;20278;-84
2023/05/06 05:41:16;;;;;;;14.43;12.93;;;;;;;11.07;100.00;100474.94;5038953;28;20252;-85
2023/05/06 05:43:43;;;;;;;14.00;12.80;;;;;;;10.97;100.00;100481.25;5039709;28;20202;-84
2023/05/06 05:46:09;;;;;;;15.90;14.40;;;;;;;10.87;100.00;100477.97;5048911;28;20209;-84
2023/05/06 05:48:38;;;;;;;15.63;14.17;;;;;;;10.85;100.00;100469.28;5038285;28;20229;-84
2023/05/06 05:51:05;;;;;;;16.53;14.83;;;;;;;10.90;100.00;100467.47;5038135;28;20603;-82
2023/05/06 05:53:31;;;;;;;15.77;14.30;;;;;;;10.90;100.00;100464.84;5037162;28;20226;-81
2023/05/06 05:55:59;;;;;;;15.80;14.40;;;;;;;11.00;100.00;100459.41;5037849;28;20210;-83
2023/05/06 05:58:25;;;;;;;16.57;14.73;;;;;;;11.07;100.00;100461.03;5039247;28;20300;-82
2023/05/06 06:00:52;;;;;;;16.40;14.50;;;;;;;11.26;100.00;100458.91;5042279;28;20210;-85
2023/05/06 06:03:18;;;;;;;17.40;15.43;;;;;;;11.24;100.00;100464.16;5037394;28;20203;-82
2023/05/06 06:05:45;;;;;;;17.77;15.83;;;;;;;11.27;100.00;100458.84;5037395;28;20230;-81
2023/05/06 06:08:11;;;;;;;16.57;14.93;;;;;;;11.50;100.00;100450.50;5037787;28;20229;-83
2023/05/06 06:10:37;;;;;;;16.90;15.40;;;;;;;11.55;100.00;100466.06;5037341;28;20267;-83
2023/05/06 06:13:05;;;;;;;16.40;15.10;;;;;;;11.61;100.00;100480.78;5036744;28;20225;-85
2023/05/06 06:15:32;;;;;;;16.13;14.77;;;;;;;11.61;100.00;100491.22;5036057;28;20215;-83
2023/05/06 06:17:58;;;;;;;14.80;13.53;;;;;;;11.77;100.00;100496.97;5036085;28;20658;-87
2023/05/06 06:20:25;;;;;;;15.40;14.20;;;;;;;11.87;100.00;100512.44;5036998;28;20256;-84
2023/05/06 06:22:51;;;;;;;15.50;14.13;;;;;;;11.96;100.00;100529.69;5036476;28;20226;-84
2023/05/06 06:25:18;;;;;;;14.57;13.47;;;;;;;12.11;100.00;100534.56;5036236;28;20268;-83
2023/05/06 06:27:44;;;;;;;13.50;12.50;;;;;;;12.23;100.00;100546.50;5036126;28;20230;-84
2023/05/06 06:30:13;;;;;;;14.73;13.50;;;;;;;12.10;100.00;100560.75;5043334;28;20237;-85
2023/05/06 06:32:48;;;;;;;13.33;12.13;;;;;;;12.07;100.00;100579.13;5035793;28;20201;-85
2023/05/06 06:35:15;;;;;;;13.17;12.10;;;;;;;12.23;100.00;100588.38;5036282;28;20201;-86
2023/05/06 06:37:41;;;;;;;13.43;12.33;;;;;;;12.11;100.00;100612.22;5036381;28;20225;-86
2023/05/06 06:40:09;;;;;;;13.17;12.07;;;;;;;12.25;100.00;100623.22;5035948;28;20256;-83
2023/05/06 06:42:35;;;;;;;12.77;11.77;;;;;;;12.12;100.00;100625.25;5035690;28;20253;-84
2023/05/06 06:45:02;;;;;;;12.30;11.37;;;;;;;12.35;100.00;100616.03;5035638;28;20236;-83
2023/05/06 06:47:30;;;;;;;13.73;12.60;;;;;;;12.39;100.00;100633.38;5035476;28;20234;-83
2023/05/06 06:49:56;;;;;;;13.27;12.27;;;;;;;12.21;100.00;100654.72;5035749;28;20233;-83
2023/05/06 06:52:22;;;;;;;12.30;11.43;;;;;;;12.39;100.00;100663.91;5035618;28;20200;-84
2023/05/06 06:54:49;;;;;;;13.17;12.20;;;;;;;12.46;100.00;100663.75;5035842;28;20221;-85
2023/05/06 06:57:15;;;;;;;13.37;12.17;;;;;;;12.54;100.00;100668.81;5035498;28;20222;-83
2023/05/06 06:59:42;;;;;;;14.07;12.97;;;;;;;12.48;100.00;100672.41;5035243;28;20583;-83
2023/05/06 07:02:08;;;;;;;13.20;12.03;;;;;;;12.45;100.00;100693.44;5035319;28;20206;-84
2023/05/06 07:04:36;;;;;;;13.67;12.60;;;;;;;12.38;100.00;100688.38;5036524;28;20213;-84
2023/05/06 07:07:02;;;;;;;14.47;13.27;;;;;;;12.43;100.00;100662.97;5037584;28;20231;-83
2023/05/06 07:09:29;;;;;;;13.47;12.37;;;;;;;12.34;100.00;100681.50;5040677;28;20210;-81
2023/05/06 07:11:55;;;;;;;14.40;13.20;;;;;;;12.38;100.00;100706.72;5041657;28;20206;-81
2023/05/06 07:14:21;;;;;;;14.43;13.23;;;;;;;12.41;100.00;100717.97;5038289;28;20248;-83
2023/05/06 07:16:48;;;;;;;13.07;11.87;;;;;;;12.43;100.00;100725.81;5038220;28;20210;-83
2023/05/06 07:19:14;;;;;;;13.47;12.43;;;;;;;12.46;100.00;100728.34;5039041;28;20206;-85
2023/05/06 07:21:42;;;;;;;13.80;12.70;;;;;;;12.51;100.00;100721.25;5037645;28;20258;-86
2023/05/06 07:24:08;;;;;;;13.27;12.27;;;;;;;12.62;100.00;100723.63;5037733;28;20318;-85
2023/05/06 07:26:35;;;;;;;14.07;12.97;;;;;;;12.63;100.00;100739.31;5040620;28;20264;-85
2023/05/06 07:29:02;;;;;;;13.77;12.67;;;;;;;12.58;100.00;100759.47;5048700;28;20277;-81
2023/05/06 07:31:29;;;;;;;13.43;12.37;;;;;;;12.68;100.00;100762.75;5058582;28;20201;-84
2023/05/06 07:33:57;;;;;;;12.30;11.37;;;;;;;12.83;100.00;100782.53;5057684;28;20221;-85
2023/05/06 07:36:23;;;;;;;12.50;11.50;;;;;;;12.97;99.43;100801.41;5058488;28;20205;-84
2023/05/06 07:38:51;;;;;;;13.00;11.83;;;;;;;13.04;100.00;100792.50;5032776;28;20228;-83
2023/05/06 07:41:17;;;;;;;12.93;11.90;;;;;;;13.21;100.00;100792.09;5030534;28;20202;-83
2023/05/06 07:43:43;;;;;;;13.87;12.73;;;;;;;13.34;99.10;100804.94;5037448;28;20222;-84
2023/05/06 07:46:10;;;;;;;16.93;15.53;;;;;;;13.27;98.17;100830.41;5037158;28;20207;-81
2023/05/06 07:48:37;;;;;;;11.67;10.77;;;;;;;13.28;96.18;100855.75;5037009;28;20235;-84
2023/05/06 07:51:04;;;;;;;11.23;10.33;;;;;;;13.47;96.41;100858.81;5039325;28;20210;-84
2023/05/06 07:53:30;;;;;;;11.43;10.53;;;;;;;13.66;96.44;100854.84;5038581;28;20224;-84
2023/05/06 07:56:00;;;;;;;11.27;10.37;;;;;;;13.78;95.52;100874.66;5039532;28;20209;-84
2023/05/06 07:58:27;;;;;;;10.13;9.40;;;;;;;13.94;93.58;100901.38;5046937;28;20226;-85
2023/05/06 08:00:54;;;;;;;10.23;9.53;;;;;;;13.97;93.02;100911.78;5035896;28;20207;-85
2023/05/06 08:06:49;;;;;;;12.17;11.17;;;;;;;14.16;92.22;100943.69;4949445;28;20210;-84
2023/05/06 08:09:15;;;;;;;11.53;10.63;;;;;;;13.97;91.08;100969.53;5019330;28;20218;-84
2023/05/06 08:11:44;;;;;;;11.83;11.03;;;;;;;14.10;91.03;100977.97;5038112;28;20239;-85
2023/05/06 08:14:10;;;;;;;11.43;10.63;;;;;;;13.97;90.28;100990.53;5037798;28;20223;-84
2023/05/06 08:16:37;;;;;;;11.93;11.03;;;;;;;13.97;91.51;100969.53;5037544;28;20624;-85
2023/05/06 08:19:03;;;;;;;11.73;10.83;;;;;;;13.94;88.57;100997.63;5036811;28;20207;-85
2023/05/06 08:21:30;;;;;;;11.27;10.33;;;;;;;14.16;89.58;101001.44;5036076;28;20242;-82
2023/05/06 08:23:56;;;;;;;11.50;10.70;;;;;;;14.40;88.92;101007.00;5034683;28;20208;-83
2023/05/06 08:26:22;;;;;;;11.40;10.60;;;;;;;14.57;89.11;100998.69;5035235;28;20267;-84
2023/05/06 08:28:50;;;;;;;10.50;9.80;;;;;;;14.69;87.19;101033.41;5035852;28;20225;-84
2023/05/06 08:31:16;;;;;;;11.73;10.80;;;;;;;14.59;86.38;101065.19;5035857;28;20262;-86
2023/05/06 08:33:43;;;;;;;11.07;10.27;;;;;;;14.18;83.24;101106.44;5036246;28;20232;-85
2023/05/06 08:36:09;;;;;;;11.77;10.87;;;;;;;14.21;87.57;101080.97;5036287;28;20266;-84
2023/05/06 08:38:35;;;;;;;10.97;10.17;;;;;;;14.37;86.80;101059.56;5036232;28;20268;-83
2023/05/06 08:41:08;;;;;;;11.37;10.47;;;;;;;14.08;88.25;101046.25;5035529;28;20265;-83
2023/05/06 08:43:40;;;;;;;11.87;11.03;;;;;;;14.39;88.66;101021.91;5036079;28;20686;-84
2023/05/06 08:46:08;;;;;;;11.07;10.27;;;;;;;14.65;87.86;101020.38;5037685;28;20580;-86
2023/05/06 08:48:36;;;;;;;11.10;10.30;;;;;;;14.64;85.79;101053.66;5035876;28;20286;-85
2023/05/06 08:51:03;;;;;;;11.13;10.37;;;;;;;14.33;86.31;101066.69;5036217;28;20258;-84
2023/05/06 08:53:30;;;;;;;12.03;11.17;;;;;;;14.45;87.11;101036.63;5036520;28;20229;-83
2023/05/06 08:55:57;;;;;;;11.43;10.63;;;;;;;14.60;85.54;101053.78;5037348;28;20281;-85
2023/05/06 08:58:26;;;;;;;12.27;11.27;;;;;;;14.78;85.96;101045.41;5036790;28;20280;-83
2023/05/06 09:00:52;;;;;;;11.93;11.13;;;;;;;14.60;85.48;101073.03;5050452;28;20233;-86
2023/05/06 09:03:20;;;;;;;11.83;11.03;;;;;;;14.45;83.56;101092.66;5056735;28;20207;-85
2023/05/06 09:05:46;;;;;;;10.90;10.10;;;;;;;14.48;86.92;101062.81;5057081;28;20348;-85
2023/05/06 09:08:14;;;;;;;12.23;11.43;;;;;;;14.72;88.05;101008.78;5056954;28;20229;-85
2023/05/06 09:10:43;;;;;;;11.57;10.67;;;;;;;14.94;85.65;101032.72;5056572;28;20230;-84
2023/05/06 09:13:11;;;;;;;9.47;8.87;;;;;;;15.15;84.96;101052.31;5057096;28;20587;-85
2023/05/06 09:15:41;;;;;;;10.60;9.80;;;;;;;15.12;83.03;101085.72;5057931;28;20703;-84
2023/05/06 09:18:08;;;;;;;9.03;8.43;;;;;;;15.30;82.38;101111.50;5057036;28;20302;-84
2023/05/06 09:20:40;;;;;;;9.50;8.80;;;;;;;15.23;81.42;101118.69;5057380;28;20566;-86
2023/05/06 09:23:08;;;;;;;8.40;7.70;;;;;;;15.34;81.43;101130.69;5057777;28;20250;-84
2023/05/06 09:25:35;;;;;;;8.90;8.23;;;;;;;15.24;80.12;101166.91;5060982;28;20204;-86
2023/05/06 09:28:06;;;;;;;9.20;8.50;;;;;;;14.88;80.15;101190.59;5049330;28;20227;-85
2023/05/06 09:30:32;;;;;;;9.47;8.77;;;;;;;14.71;81.91;101162.13;5042544;28;20211;-83
2023/05/06 09:32:59;;;;;;;9.73;9.10;;;;;;;14.92;82.01;101120.41;5052389;28;20236;-82
2023/05/06 09:35:27;;;;;;;9.43;8.40;;;;;;;15.14;82.56;101091.78;5051421;28;20245;-83
2023/05/06 09:37:55;;;;;;;9.67;8.87;;;;;;;15.41;81.08;101119.97;5051365;28;20295;-84
2023/05/06 09:40:24;;;;;;;9.67;8.73;;;;;;;15.51;80.57;101138.13;5051033;28;20303;-83
2023/05/06 09:42:51;;;;;;;9.80;9.13;;;;;;;15.65;79.36;101165.75;5050730;28;20336;-83
2023/05/06 09:45:17;;;;;;;7.83;7.33;;;;;;;15.48;80.50;101189.09;5050822;28;20216;-85
2023/05/06 09:47:44;;;;;;;7.27;6.67;;;;;;;15.67;79.64;101177.09;5049974;28;20270;-86
2023/05/06 09:50:13;;;;;;;9.20;8.30;;;;;;;15.77;78.87;101198.81;5049114;28;20235;-84
2023/05/06 09:52:44;;;;;;;8.77;8.17;;;;;;;15.86;79.31;101202.97;5054602;28;20688;-84
2023/05/06 09:55:12;;;;;;;9.20;8.57;;;;;;;15.95;78.44;101200.03;5054210;28;20228;-84
2023/05/06 09:57:39;;;;;;;8.50;7.90;;;;;;;16.04;77.79;101220.00;5047708;28;20660;-85
2023/05/06 10:00:10;;;;;;;8.17;7.57;;;;;;;15.86;76.29;101242.47;5041741;28;20552;-87
2023/05/06 10:02:39;;;;;;;8.23;7.67;;;;;;;15.90;75.97;101254.63;5043406;28;20214;-84
2023/05/06 10:05:06;;;;;;;7.43;6.83;;;;;;;15.93;76.24;101267.69;5043507;28;20205;-85
2023/05/06 10:07:32;;;;;;;7.57;7.07;;;;;;;16.06;76.58;101247.16;5042153;28;20236;-84
2023/05/06 10:10:00;;;;;;;7.20;6.70;;;;;;;15.98;77.39;101250.00;5041018;28;20209;-85
2023/05/06 10:12:28;;;;;;;7.53;7.03;;;;;;;15.83;77.35;101229.38;5040835;28;20200;-85
2023/05/06 10:14:55;;;;;;;7.40;6.90;;;;;;;15.86;77.77;101211.72;5041887;28;20229;-88
2023/05/06 10:17:24;;;;;;;7.80;7.20;;;;;;;16.04;78.37;101191.88;5042082;28;20232;-83
2023/05/06 10:20:09;;;;;;;8.00;7.40;;;;;;;16.13;77.25;101184.63;5040801;28;20225;-84
2023/05/06 10:22:48;;;;;;;6.87;6.37;;;;;;;16.12;77.46;101181.13;5040927;28;20223;-85
2023/05/06 10:25:22;;;;;;;7.17;6.57;;;;;;;16.30;76.34;101202.56;5040875;28;20205;-84
2023/05/06 10:27:49;;;;;;;6.17;5.77;;;;;;;16.29;75.14;101230.66;5036709;28;20226;-80
2023/05/06 10:30:16;;;;;;;5.80;5.40;;;;;;;16.31;74.65;101244.66;5042258;28;20649;-81
2023/05/06 10:32:44;;;;;;;6.73;5.63;;;;;;;16.29;73.67;101251.72;5039793;28;20894;-84
2023/05/06 10:35:18;;;;;;;5.93;5.43;;;;;;;15.97;73.30;101300.06;5041756;28;20597;-83
2023/05/06 10:37:46;;;;;;;7.77;6.63;;;;;;;16.02;74.94;101267.44;5042820;28;20227;-83
2023/05/06 10:40:13;;;;;;;6.10;5.70;;;;;;;16.17;76.12;101231.88;5042452;28;20239;-82
2023/05/06 10:42:39;;;;;;;6.03;5.63;;;;;;;16.27;74.44;101248.28;5043160;28;20270;-82
2023/05/06 10:45:09;;;;;;;6.50;6.00;;;;;;;16.47;75.62;101238.03;5051574;28;20272;-86
2023/05/06 10:48:11;;;;;;;7.40;6.80;;;;;;;16.70;77.44;101201.31;5042473;28;20263;-84
2023/05/06 10:50:38;;;;;;;7.80;7.30;;;;;;;16.52;75.03;101224.69;5039683;28;20205;-83
2023/05/06 10:53:04;;;;;;;8.07;7.20;;;;;;;16.53;74.94;101215.00;5039145;28;20205;-83
2023/05/06 10:55:32;;;;;;;7.43;6.83;;;;;;;16.65;74.44;101235.72;5050978;23;20225;-80
2023/05/06 10:58:02;;;;;;;9.77;6.43;;;;;;;16.84;72.91;101236.88;5016358;28;20904;-80
2023/05/06 11:00:33;;;;;;;6.07;5.57;;;;;;;16.91;71.86;101305.25;5017519;28;20271;-80
2023/05/06 11:03:02;;;;;;;6.00;5.57;;;;;;;17.03;71.61;101302.25;5016074;28;20213;-81
2023/05/06 11:05:29;;;;;;;6.47;5.97;;;;;;;16.97;71.92;101323.53;5015287;28;20752;-81
2023/05/06 11:08:08;;;;;;;6.13;5.73;;;;;;;17.23;70.70;101320.91;4998596;28;20214;-81
2023/05/06 11:10:35;;;;;;;5.87;5.40;;;;;;;17.40;69.85;101341.50;4998543;28;20238;-81